Time;durP1;ratioP1;P1;durP2;ratioP2;P2;SDS_P1;SDS_P2;PMS_P1;PMS_P2;Temp;Humidity;BMP_temperature;BMP_pressure;BME280_temperature;BME280_humidity;BME280_pressure;Samples;Min_cycle;Max_cycle;Signal;HPM_P1;HPM_P2
2021/09/09 00:01:19;;;;;;;17.50;12.55;;;;;;;16.32;82.51;100757.28;4923750;28;20039;-84
2021/09/09 00:03:53;;;;;;;17.15;12.02;;;;;;;16.29;82.78;100760.91;4925580;28;20079;-85
2021/09/09 00:06:21;;;;;;;15.85;12.57;;;;;;;16.27;82.79;100761.84;4957552;28;20043;-84
2021/09/09 00:08:51;;;;;;;14.43;11.65;;;;;;;16.23;82.99;100753.19;4927645;28;20042;-82
2021/09/09 00:11:18;;;;;;;19.20;11.60;;;;;;;16.21;83.23;100753.22;4923861;28;20054;-84
2021/09/09 00:13:45;;;;;;;15.50;11.57;;;;;;;16.20;83.47;100748.88;4941676;28;20047;-85
2021/09/09 00:16:11;;;;;;;15.38;12.23;;;;;;;16.17;83.58;100748.94;4923595;28;20484;-85
2021/09/09 00:18:39;;;;;;;15.88;12.32;;;;;;;16.15;83.79;100753.41;4942190;28;20055;-85
2021/09/09 00:21:05;;;;;;;16.13;12.43;;;;;;;16.15;83.94;100744.63;4926589;28;20137;-84
2021/09/09 00:23:33;;;;;;;16.13;11.95;;;;;;;16.11;84.19;100737.69;4921476;28;20057;-84
2021/09/09 00:25:59;;;;;;;15.82;11.80;;;;;;;16.07;84.10;100736.91;4911307;28;20114;-84
2021/09/09 00:28:26;;;;;;;16.73;12.35;;;;;;;16.03;85.11;100738.81;4925283;28;20046;-84
2021/09/09 00:30:53;;;;;;;17.45;13.35;;;;;;;15.99;85.86;100734.50;4924452;28;20051;-84
2021/09/09 00:33:20;;;;;;;17.20;11.70;;;;;;;15.99;85.50;100733.66;4923744;28;20054;-84
2021/09/09 00:35:46;;;;;;;16.10;12.63;;;;;;;15.95;86.06;100724.97;4922311;28;20047;-84
2021/09/09 00:38:13;;;;;;;15.60;11.82;;;;;;;15.92;85.98;100718.91;4926691;28;20072;-84
2021/09/09 00:40:40;;;;;;;16.73;12.80;;;;;;;15.87;86.32;100713.78;4937947;28;20101;-84
2021/09/09 00:43:07;;;;;;;14.82;12.02;;;;;;;15.84;86.38;100717.38;4923837;28;20592;-84
2021/09/09 00:45:34;;;;;;;16.25;13.23;;;;;;;15.81;86.70;100716.59;4925444;28;20126;-84
2021/09/09 00:48:00;;;;;;;17.40;13.30;;;;;;;15.78;86.68;100717.50;4923010;28;20051;-84
2021/09/09 00:50:27;;;;;;;17.83;12.90;;;;;;;15.75;86.93;100722.91;4942922;28;20046;-84
2021/09/09 00:52:54;;;;;;;17.73;12.10;;;;;;;15.74;87.04;100722.94;4920542;28;20051;-84
2021/09/09 00:55:21;;;;;;;19.40;12.80;;;;;;;15.69;87.12;100723.06;4920818;28;20051;-85
2021/09/09 00:57:49;;;;;;;16.42;13.00;;;;;;;15.64;87.41;100723.19;4936201;28;20514;-84
2021/09/09 01:00:17;;;;;;;18.75;13.27;;;;;;;15.60;87.90;100733.88;4919303;28;20055;-83
2021/09/09 01:02:44;;;;;;;19.27;13.13;;;;;;;15.58;88.45;100730.41;4935789;28;20055;-84
2021/09/09 01:05:11;;;;;;;15.32;11.95;;;;;;;15.53;88.26;100720.88;4924357;28;20054;-84
2021/09/09 01:07:40;;;;;;;15.20;11.65;;;;;;;15.50;88.34;100723.59;4937626;28;20054;-84
2021/09/09 01:10:07;;;;;;;18.35;12.77;;;;;;;15.46;88.49;100721.09;4936630;28;20043;-84
2021/09/09 01:12:34;;;;;;;16.73;12.70;;;;;;;15.43;88.81;100727.31;4919623;28;20051;-84
2021/09/09 01:15:01;;;;;;;16.20;12.55;;;;;;;15.41;89.42;100720.34;4937836;28;20043;-84
2021/09/09 01:17:27;;;;;;;20.52;13.48;;;;;;;15.37;89.62;100712.53;4921625;28;20055;-85
2021/09/09 01:19:54;;;;;;;17.83;13.32;;;;;;;15.34;89.80;100712.63;4937067;28;20129;-84
2021/09/09 01:22:21;;;;;;;17.75;12.77;;;;;;;15.32;90.03;100713.56;4934618;28;20058;-83
2021/09/09 01:24:47;;;;;;;19.10;14.25;;;;;;;15.28;90.10;100714.53;4937339;28;20050;-86
2021/09/09 01:27:17;;;;;;;17.75;13.45;;;;;;;15.28;90.00;100709.25;4921401;28;20161;-84
2021/09/09 01:29:46;;;;;;;19.88;13.48;;;;;;;15.24;90.08;100711.16;4925148;28;20055;-84
2021/09/09 01:32:13;;;;;;;18.98;14.30;;;;;;;15.21;90.00;100709.47;4923334;28;20418;-85
2021/09/09 01:34:40;;;;;;;19.38;14.77;;;;;;;15.18;90.38;100706.03;4933264;28;20410;-85
2021/09/09 01:37:07;;;;;;;18.33;14.15;;;;;;;15.14;90.83;100707.03;4921812;28;20066;-84
2021/09/09 01:39:34;;;;;;;20.63;12.98;;;;;;;15.12;90.94;100708.81;4920106;28;20055;-85
2021/09/09 01:42:01;;;;;;;21.20;13.70;;;;;;;15.07;90.74;100701.06;4918602;28;20047;-85
2021/09/09 01:44:30;;;;;;;23.75;12.93;;;;;;;15.03;91.71;100702.03;4919569;28;20067;-85
2021/09/09 01:46:59;;;;;;;20.00;14.20;;;;;;;14.99;91.90;100705.66;4916984;28;20056;-84
2021/09/09 01:49:30;;;;;;;21.17;15.13;;;;;;;14.97;92.06;100703.06;4920456;28;20047;-85
2021/09/09 01:51:57;;;;;;;20.98;15.40;;;;;;;14.93;92.43;100701.41;4953702;28;20398;-85
2021/09/09 01:54:26;;;;;;;20.35;14.57;;;;;;;14.92;92.62;100698.81;4919496;28;20055;-85
2021/09/09 01:56:52;;;;;;;21.25;16.42;;;;;;;14.88;93.24;100701.53;4941396;28;20051;-85
2021/09/09 01:59:19;;;;;;;18.40;14.52;;;;;;;14.86;92.76;100698.09;4939961;28;20046;-85
2021/09/09 02:01:46;;;;;;;21.35;15.57;;;;;;;14.83;93.39;100695.50;4940308;28;20050;-84
2021/09/09 02:04:13;;;;;;;20.25;13.32;;;;;;;14.81;92.97;100694.69;4923853;28;20045;-85
2021/09/09 02:06:39;;;;;;;20.38;16.13;;;;;;;14.78;94.07;100680.72;4922797;28;20053;-85
2021/09/09 02:09:07;;;;;;;28.13;15.48;;;;;;;14.76;93.59;100688.69;4925561;28;20047;-84
2021/09/09 02:11:34;;;;;;;21.48;14.73;;;;;;;14.72;93.72;100690.53;4937945;28;20049;-85
2021/09/09 02:14:02;;;;;;;24.67;15.63;;;;;;;14.69;93.91;100682.72;4937337;28;20050;-84
2021/09/09 02:16:39;;;;;;;18.13;13.73;;;;;;;14.67;94.13;100683.66;4925256;28;20042;-84
2021/09/09 02:19:06;;;;;;;23.45;15.82;;;;;;;14.62;94.46;100693.41;4941510;28;20055;-84
2021/09/09 02:21:33;;;;;;;23.40;15.70;;;;;;;14.58;94.57;100684.69;4942210;28;20113;-84
2021/09/09 02:24:00;;;;;;;25.42;17.98;;;;;;;14.56;95.17;100684.75;4936329;28;20418;-84
2021/09/09 02:26:26;;;;;;;23.35;17.73;;;;;;;14.55;94.85;100684.78;4925141;28;20049;-84
2021/09/09 02:28:53;;;;;;;22.48;16.00;;;;;;;14.53;95.21;100679.53;4923958;28;20187;-84
2021/09/09 02:31:19;;;;;;;22.55;16.00;;;;;;;14.51;95.40;100686.63;4927262;28;20383;-84
2021/09/09 02:33:46;;;;;;;23.70;16.30;;;;;;;14.49;95.70;100674.41;4943939;28;20126;-84
2021/09/09 02:36:15;;;;;;;22.02;15.18;;;;;;;14.46;95.42;100675.34;4925688;28;20244;-84
2021/09/09 02:38:43;;;;;;;21.77;16.40;;;;;;;14.44;95.63;100674.50;4928546;28;20051;-84
2021/09/09 02:41:10;;;;;;;22.05;16.45;;;;;;;14.40;95.89;100678.13;4941781;28;20098;-84
2021/09/09 02:43:37;;;;;;;21.08;15.70;;;;;;;14.36;96.14;100674.69;4929703;28;20494;-84
2021/09/09 02:46:03;;;;;;;20.27;14.05;;;;;;;14.34;96.20;100675.63;4928583;28;20053;-85
2021/09/09 02:48:30;;;;;;;18.13;14.18;;;;;;;14.30;96.00;100677.50;4939399;28;20560;-84
2021/09/09 02:50:56;;;;;;;21.88;15.60;;;;;;;14.26;96.83;100670.53;4961384;28;20260;-84
2021/09/09 02:53:23;;;;;;;23.40;15.50;;;;;;;14.25;96.82;100667.94;4940259;28;20055;-83
2021/09/09 02:55:50;;;;;;;26.52;16.30;;;;;;;14.21;97.04;100665.41;4922683;28;20059;-83
2021/09/09 02:58:16;;;;;;;19.30;15.70;;;;;;;14.18;96.96;100665.50;4924873;28;20167;-84
2021/09/09 03:00:43;;;;;;;24.30;17.40;;;;;;;14.16;97.17;100666.44;4937735;28;20051;-84
2021/09/09 03:03:09;;;;;;;27.15;17.38;;;;;;;14.14;97.82;100655.06;4938674;28;20303;-83
2021/09/09 03:05:36;;;;;;;23.10;16.45;;;;;;;14.11;97.72;100653.34;4939544;28;20122;-86
2021/09/09 03:08:03;;;;;;;24.08;16.80;;;;;;;14.07;97.84;100644.66;4925773;28;20130;-85
2021/09/09 03:10:29;;;;;;;21.00;16.95;;;;;;;14.04;98.11;100642.13;4941677;28;20047;-85
2021/09/09 03:12:56;;;;;;;19.92;15.18;;;;;;;14.03;97.92;100642.16;4920977;28;20164;-84
2021/09/09 03:15:22;;;;;;;28.52;19.00;;;;;;;14.00;98.20;100643.09;4922765;28;20677;-85
2021/09/09 03:17:49;;;;;;;29.77;18.17;;;;;;;13.97;98.31;100637.88;4939163;28;20117;-83
2021/09/09 03:20:16;;;;;;;26.92;18.90;;;;;;;13.98;98.66;100636.13;4939586;28;20062;-84
2021/09/09 03:22:43;;;;;;;26.33;18.40;;;;;;;13.97;98.42;100642.28;4938006;28;20043;-84
2021/09/09 03:25:10;;;;;;;26.33;18.27;;;;;;;13.95;98.96;100633.56;4920874;28;20054;-84
2021/09/09 03:27:37;;;;;;;29.45;19.20;;;;;;;13.93;99.05;100636.22;4938676;28;20047;-84
2021/09/09 03:30:05;;;;;;;25.98;18.40;;;;;;;13.92;98.83;100631.00;4921491;28;20047;-84
2021/09/09 03:32:31;;;;;;;26.75;19.70;;;;;;;13.88;98.86;100627.56;4939340;28;20968;-85
2021/09/09 03:35:01;;;;;;;28.73;19.35;;;;;;;13.85;98.81;100633.78;4922421;28;20142;-86
2021/09/09 03:37:28;;;;;;;23.25;18.08;;;;;;;13.84;99.18;100628.56;4922830;28;20162;-85
2021/09/09 03:39:56;;;;;;;23.77;16.98;;;;;;;13.80;98.87;100619.84;4923511;28;20574;-86
2021/09/09 03:42:22;;;;;;;21.38;16.70;;;;;;;13.80;99.82;100624.25;4920046;28;20043;-83
2021/09/09 03:44:49;;;;;;;28.92;19.80;;;;;;;13.77;99.48;100619.09;4928731;28;20142;-85
2021/09/09 03:47:16;;;;;;;23.58;18.17;;;;;;;13.75;99.73;100618.25;4921656;28;20825;-84
2021/09/09 03:49:43;;;;;;;25.25;16.90;;;;;;;13.71;100.00;100623.59;4924282;28;20059;-85
2021/09/09 03:52:09;;;;;;;24.73;19.52;;;;;;;13.67;100.00;100619.25;4923915;28;20067;-85
2021/09/09 03:54:36;;;;;;;25.58;17.60;;;;;;;13.66;100.00;100612.28;4930673;28;20138;-85
2021/09/09 03:57:03;;;;;;;23.52;17.00;;;;;;;13.62;100.00;100615.88;4925628;28;20499;-85
2021/09/09 03:59:30;;;;;;;22.02;17.98;;;;;;;13.60;100.00;100615.06;4920979;28;20050;-84
2021/09/09 04:01:59;;;;;;;26.30;17.42;;;;;;;13.57;100.00;100613.34;4925194;28;20070;-85
2021/09/09 04:04:26;;;;;;;22.08;17.63;;;;;;;13.54;100.00;100610.78;4923289;28;20054;-84
2021/09/09 04:06:52;;;;;;;24.48;19.23;;;;;;;13.53;100.00;100605.56;4903963;28;20055;-86
2021/09/09 04:09:19;;;;;;;26.38;18.10;;;;;;;13.52;100.00;100604.69;4907803;28;20055;-87
2021/09/09 04:11:45;;;;;;;24.25;18.80;;;;;;;13.49;100.00;100610.03;4920397;28;20051;-86
2021/09/09 04:14:12;;;;;;;27.27;19.83;;;;;;;13.49;100.00;100609.16;4905829;28;20059;-84
2021/09/09 04:16:39;;;;;;;30.92;19.33;;;;;;;13.49;100.00;100607.41;4907227;28;20046;-85
2021/09/09 04:19:05;;;;;;;25.08;18.25;;;;;;;13.49;100.00;100617.03;4903287;28;20081;-86
2021/09/09 04:21:32;;;;;;;25.17;17.63;;;;;;;13.48;100.00;100616.19;4905970;28;20506;-84
2021/09/09 04:23:59;;;;;;;25.17;18.90;;;;;;;13.46;100.00;100614.50;4901799;28;20549;-85
2021/09/09 04:26:25;;;;;;;25.90;18.67;;;;;;;13.45;100.00;100615.38;4923376;28;20511;-85
2021/09/09 04:28:52;;;;;;;32.63;19.60;;;;;;;13.42;100.00;100618.09;4908752;28;20058;-84
2021/09/09 04:31:18;;;;;;;28.08;21.08;;;;;;;13.40;100.00;100610.22;4921201;28;20050;-85
2021/09/09 04:33:45;;;;;;;25.98;17.48;;;;;;;13.37;100.00;100600.63;4906304;28;20085;-87
2021/09/09 04:36:12;;;;;;;28.27;19.60;;;;;;;13.37;100.00;100599.78;4921566;28;20110;-86
2021/09/09 04:38:39;;;;;;;27.75;20.65;;;;;;;13.34;100.00;100587.53;4922500;28;20051;-85
2021/09/09 04:41:05;;;;;;;30.60;21.70;;;;;;;13.35;100.00;100585.75;4905870;28;20106;-85
2021/09/09 04:43:34;;;;;;;32.65;21.25;;;;;;;13.34;100.00;100582.25;4919952;28;20047;-87
2021/09/09 04:46:00;;;;;;;29.92;20.27;;;;;;;13.32;100.00;100578.78;4922622;28;20497;-85
2021/09/09 04:48:27;;;;;;;31.13;20.25;;;;;;;13.32;100.00;100580.56;4902738;28;20074;-86
2021/09/09 04:50:53;;;;;;;26.63;20.08;;;;;;;13.30;100.00;100585.00;4907599;28;20166;-86
2021/09/09 04:53:24;;;;;;;30.55;20.92;;;;;;;13.28;100.00;100592.91;4910007;28;20070;-85
2021/09/09 04:56:11;;;;;;;22.63;18.48;;;;;;;13.27;100.00;100590.31;4929060;28;20411;-88
2021/09/09 04:58:38;;;;;;;29.67;19.70;;;;;;;13.27;100.00;100590.31;4926251;28;20054;-87
2021/09/09 05:03:45;;;;;;;28.38;18.25;;;;;;;13.27;100.00;100588.56;4925063;28;20043;-87
2021/09/09 05:06:14;;;;;;;26.73;19.73;;;;;;;13.29;100.00;100583.28;4923100;28;20047;-86
2021/09/09 05:08:40;;;;;;;28.98;19.40;;;;;;;13.32;100.00;100583.19;4924542;28;20051;-86
2021/09/09 05:11:10;;;;;;;25.63;18.02;;;;;;;13.31;100.00;100577.09;4941261;28;20109;-86
2021/09/09 05:13:39;;;;;;;21.67;17.20;;;;;;;13.33;100.00;100582.31;4924710;28;20054;-86
2021/09/09 05:16:06;;;;;;;30.80;20.88;;;;;;;13.34;100.00;100576.16;4926283;28;20043;-85
2021/09/09 05:18:33;;;;;;;27.60;19.88;;;;;;;13.34;100.00;100584.03;4919497;28;20047;-86
2021/09/09 05:21:00;;;;;;;28.45;19.15;;;;;;;13.35;100.00;100581.38;4926670;28;20082;-86
2021/09/09 05:23:26;;;;;;;28.73;18.80;;;;;;;13.36;100.00;100577.88;4923246;28;20154;-86
2021/09/09 05:25:53;;;;;;;26.05;18.98;;;;;;;13.38;100.00;100580.47;4922717;28;20058;-87
2021/09/09 05:28:21;;;;;;;26.27;19.38;;;;;;;13.39;100.00;100571.69;4940523;28;20035;-85
2021/09/09 05:30:48;;;;;;;28.02;18.95;;;;;;;13.38;100.00;100568.19;4939168;28;20047;-85
2021/09/09 05:33:14;;;;;;;29.95;20.30;;;;;;;13.42;100.00;100570.75;4922419;28;20094;-87
2021/09/09 05:35:46;;;;;;;30.17;20.15;;;;;;;13.42;100.00;100573.38;4922780;28;20680;-86
2021/09/09 05:38:13;;;;;;;34.55;21.05;;;;;;;13.45;100.00;100578.56;4941621;28;20051;-87
2021/09/09 05:40:50;;;;;;;30.08;19.67;;;;;;;13.47;100.00;100575.00;4925160;28;20461;-85
2021/09/09 05:43:19;;;;;;;29.50;19.75;;;;;;;13.50;100.00;100585.44;4938828;28;20140;-87
2021/09/09 05:45:46;;;;;;;28.67;18.92;;;;;;;13.55;100.00;100582.72;4922070;28;20050;-85
2021/09/09 05:48:13;;;;;;;29.05;21.08;;;;;;;13.57;100.00;100583.53;4926919;28;20087;-85
2021/09/09 05:50:42;;;;;;;27.83;19.45;;;;;;;13.60;100.00;100577.34;4941856;28;20055;-87
2021/09/09 05:53:09;;;;;;;30.60;20.63;;;;;;;13.63;100.00;100580.78;4940970;28;20583;-84
2021/09/09 05:55:37;;;;;;;28.45;19.52;;;;;;;13.68;100.00;100578.91;4920476;28;20226;-87
2021/09/09 05:58:03;;;;;;;29.48;18.25;;;;;;;13.70;100.00;100570.97;4924660;28;20137;-87
2021/09/09 06:00:31;;;;;;;30.73;20.25;;;;;;;13.71;99.87;100577.97;4920723;28;20638;-87
2021/09/09 06:03:00;;;;;;;28.80;19.83;;;;;;;13.73;99.61;100565.66;4921503;28;20051;-86
2021/09/09 06:05:27;;;;;;;31.25;20.77;;;;;;;13.76;99.88;100570.84;4923023;28;20061;-87
2021/09/09 06:07:55;;;;;;;24.77;17.75;;;;;;;13.78;99.40;100569.06;4948063;28;20058;-87
2021/09/09 06:10:22;;;;;;;27.60;20.33;;;;;;;13.82;99.60;100573.34;4925608;28;20360;-88
2021/09/09 06:12:48;;;;;;;29.13;20.48;;;;;;;13.88;99.37;100578.47;4930604;28;20050;-86
2021/09/09 06:15:15;;;;;;;30.45;19.58;;;;;;;13.95;99.36;100567.75;4935079;28;20083;-87
2021/09/09 06:17:42;;;;;;;29.67;20.73;;;;;;;14.02;98.65;100567.56;4922005;28;20106;-86
2021/09/09 06:20:09;;;;;;;29.50;20.50;;;;;;;14.12;98.52;100562.97;4921469;28;20055;-86
2021/09/09 06:22:36;;;;;;;23.58;17.17;;;;;;;14.27;97.81;100563.47;4916258;28;20075;-87
2021/09/09 06:25:03;;;;;;;26.80;17.90;;;;;;;14.47;97.41;100566.47;4917189;28;20051;-87
2021/09/09 06:27:29;;;;;;;22.95;16.05;;;;;;;14.74;96.95;100563.16;4919754;28;20055;-85
2021/09/09 06:29:59;;;;;;;27.45;18.05;;;;;;;15.02;95.93;100556.19;4918333;28;20052;-87
2021/09/09 06:32:25;;;;;;;25.65;17.42;;;;;;;15.32;94.98;100556.19;4940468;28;20601;-86
2021/09/09 06:34:53;;;;;;;21.17;16.73;;;;;;;15.58;92.91;100549.25;4924421;28;20074;-86
2021/09/09 06:37:22;;;;;;;20.75;16.02;;;;;;;15.82;91.78;100549.41;4924500;28;20047;-86
2021/09/09 06:39:49;;;;;;;22.92;16.25;;;;;;;16.15;90.73;100558.00;4925363;28;20047;-86
2021/09/09 06:42:16;;;;;;;19.83;14.68;;;;;;;16.43;89.13;100549.09;4921041;28;20075;-86
2021/09/09 06:44:45;;;;;;;21.98;15.80;;;;;;;16.65;85.84;100551.84;4933463;28;20065;-87
2021/09/09 06:47:13;;;;;;;18.13;14.40;;;;;;;16.90;85.92;100553.63;4944144;28;20361;-86
2021/09/09 06:49:40;;;;;;;19.42;14.43;;;;;;;17.22;84.60;100548.91;4940098;28;20075;-85
2021/09/09 06:52:07;;;;;;;19.00;14.95;;;;;;;17.56;81.51;100554.66;4936144;28;20047;-86
2021/09/09 06:54:34;;;;;;;21.77;15.65;;;;;;;17.88;81.76;100547.22;4918963;28;20102;-87
2021/09/09 06:57:01;;;;;;;18.23;13.57;;;;;;;18.22;80.64;100545.84;4944103;28;20050;-86
2021/09/09 06:59:30;;;;;;;19.08;14.68;;;;;;;18.55;78.56;100548.84;5019048;23;20066;-88
2021/09/09 07:02:01;;;;;;;17.95;14.93;;;;;;;18.84;77.31;100544.88;4954524;28;20055;-88
2021/09/09 07:04:28;;;;;;;20.33;13.80;;;;;;;19.18;75.71;100540.69;4926480;28;20126;-87
2021/09/09 07:06:55;;;;;;;15.80;13.75;;;;;;;19.49;74.44;100543.69;4941575;28;20081;-85
2021/09/09 07:09:21;;;;;;;16.40;13.40;;;;;;;19.78;72.82;100541.41;4944691;28;20103;-88
2021/09/09 07:11:48;;;;;;;16.50;13.65;;;;;;;19.96;70.86;100542.34;4944691;28;20042;-87
2021/09/09 07:14:15;;;;;;;18.67;13.93;;;;;;;20.23;69.92;100542.72;4936452;28;20051;-86
2021/09/09 07:16:42;;;;;;;17.73;13.95;;;;;;;20.62;68.57;100554.03;4926535;28;20131;-87
2021/09/09 07:19:09;;;;;;;18.00;14.05;;;;;;;20.95;65.84;100540.75;4943866;28;20054;-87
2021/09/09 07:21:36;;;;;;;17.23;13.30;;;;;;;21.26;65.07;100541.75;4947797;28;20058;-86
2021/09/09 07:24:04;;;;;;;16.45;13.30;;;;;;;21.51;64.11;100543.03;4932250;28;20047;-87
2021/09/09 07:26:32;;;;;;;14.77;11.52;;;;;;;21.69;63.11;100541.13;4944508;28;20593;-87
2021/09/09 07:28:59;;;;;;;13.13;11.73;;;;;;;22.02;61.70;100540.13;4930977;28;20051;-86
2021/09/09 07:31:26;;;;;;;12.20;10.68;;;;;;;22.42;59.80;100547.59;4947430;28;20141;-87
2021/09/09 07:33:52;;;;;;;15.43;10.38;;;;;;;22.61;58.57;100548.19;4956309;28;20047;-88
2021/09/09 07:36:19;;;;;;;14.43;10.38;;;;;;;22.88;57.53;100542.09;4944096;28;20051;-90
2021/09/09 07:38:46;;;;;;;10.63;9.52;;;;;;;22.94;56.36;100538.19;4947019;28;20589;-86
2021/09/09 07:41:14;;;;;;;12.63;10.77;;;;;;;23.21;55.56;100535.59;4943847;28;20039;-86
2021/09/09 07:43:44;;;;;;;11.60;10.32;;;;;;;23.56;53.92;100531.63;4940463;28;20047;-86
2021/09/09 07:46:11;;;;;;;10.80;9.70;;;;;;;23.68;53.58;100530.78;4960239;28;20050;-87
2021/09/09 07:48:38;;;;;;;13.40;10.50;;;;;;;23.97;53.11;100530.69;4959721;28;20049;-86
2021/09/09 07:51:04;;;;;;;10.55;9.60;;;;;;;24.32;52.23;100538.13;4944436;28;20111;-91
2021/09/09 07:53:31;;;;;;;9.98;8.45;;;;;;;24.80;51.09;100542.91;4944219;28;20054;-86
2021/09/09 07:55:58;;;;;;;10.18;8.73;;;;;;;25.23;49.96;100534.44;4942733;28;20043;-84
2021/09/09 07:58:25;;;;;;;10.30;7.90;;;;;;;25.66;48.48;100537.66;4928023;28;20386;-87
2021/09/09 08:00:51;;;;;;;11.00;9.05;;;;;;;25.92;47.44;100544.59;4919794;28;20063;-87
2021/09/09 08:03:18;;;;;;;9.30;8.15;;;;;;;26.22;46.78;100543.25;4947210;28;20528;-87
2021/09/09 08:05:45;;;;;;;9.82;7.18;;;;;;;26.54;45.15;100539.03;4942363;28;20074;-86
2021/09/09 08:08:12;;;;;;;10.60;7.82;;;;;;;26.92;44.60;100543.25;4949293;28;20043;-86
2021/09/09 08:10:39;;;;;;;9.20;8.25;;;;;;;27.36;43.84;100536.09;4930903;28;20043;-89
2021/09/09 08:13:05;;;;;;;8.85;7.85;;;;;;;27.66;42.63;100534.56;4919819;28;20051;-86
2021/09/09 08:15:33;;;;;;;8.95;7.47;;;;;;;27.83;41.87;100535.84;4965862;28;20082;-86
2021/09/09 08:18:07;;;;;;;8.48;7.03;;;;;;;27.93;41.73;100533.25;4969471;28;20135;-90
2021/09/09 08:20:37;;;;;;;8.63;6.95;;;;;;;28.16;40.92;100536.72;4947144;28;20102;-85
2021/09/09 08:23:04;;;;;;;8.15;6.95;;;;;;;28.23;39.83;100542.44;4947351;28;20046;-89
2021/09/09 08:25:32;;;;;;;12.15;7.05;;;;;;;28.50;39.80;100536.50;4915825;28;20427;-88
2021/09/09 08:28:07;;;;;;;9.00;6.55;;;;;;;28.74;39.26;100540.75;4948951;28;20094;-86
2021/09/09 08:30:43;;;;;;;7.65;6.80;;;;;;;28.74;38.85;100538.06;4914337;28;20055;-91
2021/09/09 08:33:10;;;;;;;13.00;7.40;;;;;;;28.62;38.97;100536.44;4943609;28;20051;-87
2021/09/09 08:35:37;;;;;;;6.88;6.10;;;;;;;29.20;38.44;100541.22;4917633;28;20425;-88
2021/09/09 08:38:04;;;;;;;10.60;6.90;;;;;;;29.69;37.41;100533.25;4956906;28;20046;-88
2021/09/09 08:40:31;;;;;;;7.82;6.40;;;;;;;30.25;36.75;100534.34;4935259;28;20046;-85
2021/09/09 08:43:08;;;;;;;8.15;6.63;;;;;;;30.69;36.16;100531.16;4938431;28;20130;-84
2021/09/09 08:45:36;;;;;;;6.57;6.00;;;;;;;31.02;34.57;100527.00;4949943;28;20061;-88
2021/09/09 08:48:07;;;;;;;6.72;5.43;;;;;;;31.43;33.88;100526.66;4929974;28;20539;-89
2021/09/09 08:50:34;;;;;;;7.75;5.43;;;;;;;31.60;33.27;100524.09;4943827;28;20057;-90
2021/09/09 08:53:02;;;;;;;6.45;5.90;;;;;;;31.32;32.67;100525.00;4925049;28;20042;-90
2021/09/09 09:04:22;;;;;;;5.88;5.28;;;;;;;31.45;31.72;100513.81;5955674;23;20029;-85
2021/09/09 09:15:18;;;;;;;6.78;6.15;;;;;;;32.73;29.11;100518.91;5016208;23;20047;-86
2021/09/09 09:18:13;;;;;;;6.03;5.43;;;;;;;33.34;29.28;100518.81;4936650;28;20054;-86
2021/09/09 09:20:49;;;;;;;6.35;5.78;;;;;;;33.59;29.25;100516.16;4930123;28;20066;-86
2021/09/09 09:23:25;;;;;;;8.25;6.55;;;;;;;34.03;28.60;100507.69;4948840;28;20049;-85
2021/09/09 09:26:18;;;;;;;9.15;5.40;;;;;;;34.20;27.79;100510.41;4960861;28;20042;-84
2021/09/09 09:29:19;;;;;;;5.85;5.38;;;;;;;34.39;27.72;100504.63;4961452;28;20501;-86
2021/09/09 09:31:51;;;;;;;5.88;5.38;;;;;;;34.45;27.89;100501.19;4955635;28;20039;-86
2021/09/09 09:34:35;;;;;;;7.03;6.30;;;;;;;34.78;27.53;100503.81;4922500;28;20045;-85
2021/09/09 09:37:08;;;;;;;6.57;5.82;;;;;;;35.23;26.67;100512.28;4942743;28;20493;-87
2021/09/09 09:39:35;;;;;;;6.15;5.55;;;;;;;35.62;26.54;100499.63;4954399;28;20058;-86
2021/09/09 09:42:06;;;;;;;6.97;6.32;;;;;;;35.89;25.92;100495.50;4941931;28;20047;-87
2021/09/09 09:44:42;;;;;;;6.25;5.70;;;;;;;35.89;26.00;100506.41;4918975;28;20632;-85
2021/09/09 09:47:22;;;;;;;7.22;6.63;;;;;;;35.99;25.89;100497.97;4918111;28;20533;-86
2021/09/09 09:49:55;;;;;;;6.53;5.95;;;;;;;36.35;25.67;100501.88;4948227;28;20119;-88
2021/09/09 09:52:32;;;;;;;6.25;5.63;;;;;;;36.67;25.69;100497.94;4913937;28;20979;-87
2021/09/09 09:55:09;;;;;;;6.40;5.80;;;;;;;36.79;25.63;100490.09;4953959;28;20380;-87
2021/09/09 09:57:57;;;;;;;6.60;5.90;;;;;;;36.32;25.17;100492.16;4919497;28;20062;-86
2021/09/09 10:00:24;;;;;;;6.63;5.82;;;;;;;36.57;25.55;100492.78;4932893;28;20624;-86
2021/09/09 10:02:54;;;;;;;9.52;6.68;;;;;;;37.20;24.97;100497.75;4923181;28;20051;-86
2021/09/09 10:05:25;;;;;;;6.90;6.30;;;;;;;37.42;24.11;100492.38;4918503;28;20061;-88
2021/09/09 10:07:55;;;;;;;8.48;6.72;;;;;;;37.61;24.17;100492.75;4919664;28;20458;-87
2021/09/09 10:10:27;;;;;;;7.15;6.43;;;;;;;37.77;24.20;100483.41;4933829;28;20642;-86
2021/09/09 10:12:54;;;;;;;9.18;6.60;;;;;;;37.94;23.89;100484.88;4918756;28;20053;-86
2021/09/09 10:15:23;;;;;;;8.95;7.05;;;;;;;38.00;23.83;100485.94;4917013;28;20482;-86
2021/09/09 10:17:52;;;;;;;7.18;6.55;;;;;;;38.34;23.44;100479.66;4913166;28;20056;-87
2021/09/09 10:20:29;;;;;;;7.97;6.40;;;;;;;38.70;23.29;100475.88;4918733;28;20854;-87
2021/09/09 10:23:09;;;;;;;8.07;5.55;;;;;;;39.00;22.17;100475.59;4928358;28;20047;-86
2021/09/09 10:26:02;;;;;;;5.80;5.40;;;;;;;39.18;22.33;100474.22;4952488;28;20413;-86
2021/09/09 10:28:34;;;;;;;7.70;6.30;;;;;;;39.10;22.53;100472.47;4926432;28;20046;-86
2021/09/09 10:31:07;;;;;;;8.95;6.43;;;;;;;38.67;22.24;100468.09;4933236;28;20129;-86
2021/09/09 10:33:44;;;;;;;5.90;5.40;;;;;;;38.59;22.30;100470.97;4916655;28;20063;-86
2021/09/09 10:36:44;;;;;;;6.72;5.55;;;;;;;38.48;22.61;100477.88;4920774;28;20493;-87
2021/09/09 10:39:45;;;;;;;7.13;6.30;;;;;;;38.46;22.43;100469.03;4918894;28;20114;-86
2021/09/09 10:42:38;;;;;;;7.20;6.22;;;;;;;38.55;22.18;100461.50;4934025;28;20055;-86
2021/09/09 10:45:13;;;;;;;6.40;5.90;;;;;;;39.17;22.28;100456.88;4922250;28;20035;-86
2021/09/09 10:47:52;;;;;;;5.18;4.68;;;;;;;39.83;21.66;100457.19;4911893;28;20097;-86
2021/09/09 10:50:25;;;;;;;6.38;5.88;;;;;;;40.05;21.00;100455.03;4933637;28;20061;-86
2021/09/09 10:53:36;;;;;;;5.85;5.35;;;;;;;40.48;20.78;100449.06;4916890;28;20057;-86
2021/09/09 10:56:18;;;;;;;6.13;5.63;;;;;;;40.98;20.54;100462.19;4946136;28;20063;-86
2021/09/09 10:58:45;;;;;;;6.75;5.82;;;;;;;40.37;20.68;100452.47;4898232;28;20051;-87
2021/09/09 11:01:12;;;;;;;7.03;6.43;;;;;;;40.01;20.84;100451.06;4918382;28;20544;-85
2021/09/09 11:03:50;;;;;;;5.68;5.22;;;;;;;40.07;20.40;100446.63;4937860;28;20417;-86
2021/09/09 11:06:24;;;;;;;5.70;5.30;;;;;;;39.77;21.15;100445.19;4920544;28;20142;-87
2021/09/09 11:08:53;;;;;;;5.88;5.32;;;;;;;39.13;21.70;100441.09;4934841;28;20061;-87
2021/09/09 11:11:25;;;;;;;6.18;5.65;;;;;;;38.23;22.25;100441.97;4916194;28;21029;-87
2021/09/09 11:14:08;;;;;;;7.60;5.90;;;;;;;37.97;22.52;100435.28;4953051;28;20065;-86
2021/09/09 11:16:38;;;;;;;5.53;5.03;;;;;;;37.90;23.15;100437.09;4898476;28;20461;-87
2021/09/09 11:19:07;;;;;;;5.43;5.13;;;;;;;36.85;23.85;100443.00;4921734;28;20149;-86
2021/09/09 11:21:40;;;;;;;5.38;4.90;;;;;;;35.52;25.11;100437.25;4935788;28;20449;-88
2021/09/09 11:24:15;;;;;;;6.65;6.03;;;;;;;34.80;25.74;100435.66;4913393;28;20042;-87
2021/09/09 11:26:47;;;;;;;6.05;5.55;;;;;;;34.40;26.63;100441.06;4938800;28;20055;-87
2021/09/09 11:29:23;;;;;;;7.03;6.18;;;;;;;34.15;27.39;100437.56;4918268;28;20121;-87
2021/09/09 11:31:53;;;;;;;7.43;5.45;;;;;;;34.52;26.52;100422.50;4927358;28;20113;-87
2021/09/09 11:34:31;;;;;;;6.07;5.47;;;;;;;34.78;25.95;100422.22;4915841;28;20035;-87
2021/09/09 11:37:04;;;;;;;6.40;5.60;;;;;;;34.41;26.85;100421.03;4921457;28;20121;-87
2021/09/09 11:39:35;;;;;;;6.30;5.68;;;;;;;33.82;27.46;100421.34;4937748;28;20057;-87
2021/09/09 11:42:04;;;;;;;6.30;5.22;;;;;;;34.60;27.01;100427.06;4931644;28;20078;-86